createdAt,value
2019-04-11T00:00:27.735Z,8.50
2019-04-11T00:02:55.325Z,8.50
2019-04-11T00:05:26.526Z,8.50
2019-04-11T00:07:57.214Z,8.50
2019-04-11T00:10:24.990Z,8.40
2019-04-11T00:12:54.829Z,8.40
2019-04-11T00:15:21.521Z,8.40
2019-04-11T00:17:50.148Z,8.40
2019-04-11T00:20:18.070Z,8.40
2019-04-11T00:22:45.960Z,8.30
2019-04-11T00:25:13.620Z,8.30
2019-04-11T00:27:41.351Z,8.30
2019-04-11T00:30:08.751Z,8.30
2019-04-11T00:32:36.328Z,8.30
2019-04-11T00:35:03.894Z,8.30
2019-04-11T00:37:32.789Z,8.20
2019-04-11T00:39:59.974Z,8.20
2019-04-11T00:42:28.338Z,8.20
2019-04-11T00:44:55.157Z,8.20
2019-04-11T00:47:24.834Z,8.30
2019-04-11T00:49:52.284Z,8.40
2019-04-11T00:52:20.590Z,8.30
2019-04-11T00:54:47.459Z,8.30
2019-04-11T00:57:15.028Z,8.30
2019-04-11T00:59:42.684Z,8.30
2019-04-11T01:02:11.404Z,8.30
2019-04-11T01:04:39.047Z,8.30
2019-04-11T01:07:05.423Z,8.20
2019-04-11T01:09:36.683Z,8.20
2019-04-11T01:12:04.659Z,8.20
2019-04-11T01:14:32.062Z,8.20
2019-04-11T01:16:59.431Z,8.20
2019-04-11T01:19:26.997Z,8.20
2019-04-11T01:21:55.332Z,8.00
2019-04-11T01:24:23.857Z,8.00
2019-04-11T01:26:51.687Z,8.00
2019-04-11T01:29:18.132Z,8.10
2019-04-11T01:31:46.230Z,8.20
2019-04-11T01:34:13.307Z,8.20
2019-04-11T01:36:40.872Z,8.00
2019-04-11T01:42:05.560Z,7.90
2019-04-11T01:44:33.125Z,7.80
2019-04-11T01:47:00.690Z,7.70
2019-04-11T01:49:28.374Z,7.70
2019-04-11T01:51:58.199Z,7.80
2019-04-11T01:54:28.080Z,7.80
2019-04-11T01:56:55.816Z,7.70
2019-04-11T01:59:23.587Z,7.70
2019-04-11T02:04:52.384Z,7.70
2019-04-11T02:07:20.600Z,7.70
2019-04-11T02:09:48.455Z,7.90
2019-04-11T02:12:16.173Z,7.90
2019-04-11T02:14:43.803Z,7.90
2019-04-11T02:17:10.508Z,7.90
2019-04-11T02:19:38.920Z,7.80
2019-04-11T02:22:15.954Z,7.80
2019-04-11T02:24:54.325Z,7.80
2019-04-11T02:27:23.287Z,7.80
2019-04-11T02:29:49.431Z,7.80
2019-04-11T02:32:18.552Z,7.80
2019-04-11T02:34:46.084Z,7.80
2019-04-11T02:37:13.436Z,7.90
2019-04-11T02:39:41.037Z,7.80
2019-04-11T02:42:08.958Z,7.70
2019-04-11T02:44:52.888Z,7.80
2019-04-11T02:47:09.485Z,7.90
2019-04-11T02:49:31.759Z,7.80
2019-04-11T02:51:58.718Z,7.90
2019-04-11T02:54:26.594Z,7.90
2019-04-11T02:56:54.822Z,7.80
2019-04-11T02:59:21.636Z,7.70
2019-04-11T03:01:50.752Z,7.70
2019-04-11T03:04:16.824Z,7.70
2019-04-11T03:06:45.655Z,7.70
2019-04-11T03:09:13.302Z,7.70
2019-04-11T03:11:40.869Z,7.70
2019-04-11T03:14:07.668Z,7.70
2019-04-11T03:16:49.188Z,7.60
2019-04-11T03:19:17.906Z,7.60
2019-04-11T03:21:36.741Z,7.60
2019-04-11T03:24:00.380Z,7.60
2019-04-11T03:26:27.035Z,7.50
2019-04-11T03:28:56.876Z,7.30
2019-04-11T03:39:07.536Z,7.10
2019-04-11T03:41:29.732Z,7.10
2019-04-11T03:43:50.897Z,7.30
2019-04-11T03:46:25.022Z,7.30
2019-04-11T03:48:49.752Z,7.10
2019-04-11T03:51:04.510Z,6.80
2019-04-11T03:53:32.087Z,6.80
2019-04-11T03:55:59.144Z,6.80
2019-04-11T03:58:25.978Z,6.60
2019-04-11T04:00:58.813Z,6.30
2019-04-11T04:03:24.370Z,6.30
2019-04-11T04:05:50.665Z,6.20
2019-04-11T04:08:18.119Z,6.30
2019-04-11T04:13:42.855Z,6.10
2019-04-11T04:16:24.499Z,6.10
2019-04-11T04:18:47.899Z,6.10
2019-04-11T04:21:17.284Z,6.10
2019-04-11T04:23:43.904Z,6.00
2019-04-11T04:26:12.217Z,6.00
2019-04-11T04:28:40.705Z,5.90
2019-04-11T04:31:07.030Z,5.90
2019-04-11T04:33:35.588Z,5.90
2019-04-11T04:36:02.345Z,5.80
2019-04-11T04:38:31.584Z,5.80
2019-04-11T04:41:11.250Z,5.70
2019-04-11T04:43:29.557Z,5.80
2019-04-11T04:46:13.677Z,5.80
2019-04-11T04:48:26.987Z,5.90
2019-04-11T04:50:56.389Z,5.90
2019-04-11T04:53:22.084Z,5.90
2019-04-11T04:55:50.070Z,5.90
2019-04-11T04:58:15.912Z,5.80
2019-04-11T05:00:43.730Z,5.80
2019-04-11T05:03:11.209Z,5.60
2019-04-11T05:05:38.915Z,5.60
2019-04-11T05:08:06.234Z,5.60
2019-04-11T05:10:35.828Z,5.60
2019-04-11T05:13:03.614Z,5.60
2019-04-11T05:15:29.725Z,5.70
2019-04-11T05:17:58.063Z,5.50
2019-04-11T05:20:25.646Z,5.50
2019-04-11T05:22:53.215Z,5.60
2019-04-11T05:25:20.792Z,5.70
2019-04-11T05:27:49.588Z,5.80
2019-04-11T05:30:16.737Z,5.70
2019-04-11T05:32:43.584Z,5.70
2019-04-11T05:35:11.159Z,5.80
2019-04-11T05:37:40.635Z,5.90
2019-04-11T05:40:10.126Z,6.00
2019-04-11T05:42:37.712Z,5.90
2019-04-11T05:45:06.194Z,5.70
2019-04-11T05:47:33.646Z,5.60
2019-04-11T05:50:01.207Z,5.60
2019-04-11T05:52:31.165Z,5.50
2019-04-11T05:54:58.508Z,5.50
2019-04-11T05:57:33.595Z,5.50
2019-04-11T05:59:54.814Z,5.60
2019-04-11T06:02:37.453Z,5.80
2019-04-11T06:05:06.981Z,5.80
2019-04-11T06:07:42.356Z,5.80
2019-04-11T06:10:12.886Z,5.90
2019-04-11T06:12:50.513Z,6.10
2019-04-11T06:15:33.263Z,6.20
2019-04-11T06:18:02.689Z,6.00
2019-04-11T06:20:35.578Z,5.90
2019-04-11T06:25:58.828Z,5.90
2019-04-11T06:28:27.638Z,5.90
2019-04-11T06:31:09.688Z,5.90
2019-04-11T06:33:37.848Z,6.00
2019-04-11T06:36:11.813Z,6.00
2019-04-11T06:38:43.563Z,6.00
2019-04-11T06:41:12.479Z,5.90
2019-04-11T06:43:40.492Z,5.80
2019-04-11T06:46:11.169Z,5.80
2019-04-11T06:48:40.047Z,5.90
2019-04-11T06:51:13.627Z,6.00
2019-04-11T06:53:40.507Z,6.10
2019-04-11T06:56:13.764Z,6.10
2019-04-11T06:58:43.933Z,6.00
2019-04-11T07:01:13.991Z,5.90
2019-04-11T07:03:43.369Z,6.10
2019-04-11T07:06:21.735Z,6.30
2019-04-11T07:08:52.783Z,6.50
2019-04-11T07:11:20.973Z,6.50
2019-04-11T07:13:50.440Z,6.60
2019-04-11T07:16:18.617Z,6.60
2019-04-11T07:19:00.651Z,6.50
2019-04-11T07:21:28.110Z,6.70
2019-04-11T07:24:01.335Z,6.80
2019-04-11T07:26:29.496Z,7.00
2019-04-11T07:28:58.600Z,7.20
2019-04-11T07:34:24.118Z,7.20
2019-04-11T07:36:56.156Z,7.20
2019-04-11T07:39:41.397Z,7.20
2019-04-11T07:42:13.551Z,7.30
2019-04-11T07:44:40.797Z,6.90
2019-04-11T07:47:19.133Z,6.70
2019-04-11T07:49:40.868Z,6.80
2019-04-11T07:52:09.689Z,6.70
2019-04-11T07:54:37.255Z,6.70
2019-04-11T07:57:11.387Z,6.70
2019-04-11T07:59:44.658Z,6.60
2019-04-11T08:02:27.107Z,6.60
2019-04-11T08:04:55.359Z,6.90
2019-04-11T08:07:28.113Z,6.80
2019-04-11T08:09:57.146Z,6.70
2019-04-11T08:12:25.488Z,6.70
2019-04-11T08:15:13.599Z,6.80
2019-04-11T08:17:43.009Z,6.60
2019-04-11T08:20:11.159Z,6.70
2019-04-11T08:22:39.179Z,6.60
2019-04-11T08:25:07.776Z,7.00
2019-04-11T08:27:48.442Z,7.20
2019-04-11T08:30:04.569Z,7.50
2019-04-11T08:32:37.994Z,7.60
2019-04-11T08:35:06.169Z,7.80
2019-04-11T08:37:36.329Z,7.40
2019-04-11T08:40:03.998Z,7.20
2019-04-11T08:45:26.651Z,7.20
2019-04-11T08:47:57.333Z,7.20
2019-04-11T08:50:22.745Z,7.10
2019-04-11T08:52:49.824Z,7.40
2019-04-11T08:55:17.388Z,7.70
2019-04-11T08:57:44.946Z,7.80
2019-04-11T09:03:15.550Z,8.20
2019-04-11T09:05:47.067Z,8.80
2019-04-11T09:08:18.405Z,8.80
2019-04-11T09:10:49.700Z,9.00
2019-04-11T09:13:32.079Z,9.20
2019-04-11T09:16:05.545Z,9.00
2019-04-11T09:18:32.767Z,8.90
2019-04-11T09:23:54.427Z,9.40
2019-04-11T09:26:28.665Z,9.60
2019-04-11T09:28:56.234Z,9.90
2019-04-11T09:31:29.653Z,10.00
2019-04-11T09:33:59.541Z,10.10
2019-04-11T09:39:21.528Z,10.10
2019-04-11T09:41:49.104Z,10.20
2019-04-11T09:44:18.142Z,10.20
2019-04-11T09:46:51.371Z,10.20
2019-04-11T09:49:22.690Z,10.20
2019-04-11T09:51:55.975Z,10.30
2019-04-11T09:54:26.086Z,10.70
2019-04-11T09:57:07.850Z,10.60
2019-04-11T09:59:39.318Z,10.80
2019-04-11T10:02:11.283Z,10.90
2019-04-11T10:04:39.476Z,10.90
2019-04-11T10:07:17.506Z,11.00
2019-04-11T10:10:00.202Z,11.20
2019-04-11T10:12:30.383Z,11.20
2019-04-11T10:14:57.951Z,11.10
2019-04-11T10:17:43.279Z,11.10
2019-04-11T10:20:10.852Z,11.20
2019-04-11T10:22:54.419Z,11.20
2019-04-11T10:25:21.550Z,11.40
2019-04-11T10:27:55.254Z,11.70
2019-04-11T10:30:29.279Z,11.80
2019-04-11T10:32:57.365Z,11.90
2019-04-11T10:35:30.412Z,11.80
2019-04-11T10:37:58.219Z,11.80
2019-04-11T10:40:26.240Z,12.00
2019-04-11T10:42:53.944Z,11.90
2019-04-11T10:45:25.083Z,11.90
2019-04-11T10:47:54.271Z,12.00
2019-04-11T10:53:14.978Z,12.30
2019-04-11T10:58:42.719Z,12.30
2019-04-11T11:01:09.506Z,12.60
2019-04-11T11:03:44.987Z,12.60
2019-04-11T11:06:11.620Z,12.90
2019-04-11T11:08:54.064Z,12.70
2019-04-11T11:11:22.403Z,12.80
2019-04-11T11:13:56.345Z,12.80
2019-04-11T11:16:27.521Z,13.10
2019-04-11T11:19:24.660Z,13.10
2019-04-11T11:21:29.726Z,12.70
2019-04-11T11:24:15.862Z,13.10
2019-04-11T11:26:43.431Z,13.00
2019-04-11T11:29:21.007Z,12.80
2019-04-11T11:31:50.538Z,13.10
2019-04-11T11:34:20.289Z,13.00
2019-04-11T11:39:41.616Z,12.80
2019-04-11T11:42:14.739Z,12.80
2019-04-11T11:44:45.179Z,13.30
2019-04-11T11:47:35.631Z,13.20
2019-04-11T11:50:02.479Z,13.20
2019-04-11T11:52:43.995Z,12.50
2019-04-11T11:55:10.776Z,12.50
2019-04-11T11:57:39.233Z,12.70
2019-04-11T12:00:07.007Z,13.20
2019-04-11T12:02:34.767Z,13.50
2019-04-11T12:05:20.530Z,13.70
2019-04-11T12:07:51.487Z,13.50
2019-04-11T12:10:20.446Z,13.20
2019-04-11T12:13:04.333Z,13.60
2019-04-11T12:15:33.398Z,13.70
2019-04-11T12:18:20.399Z,13.20
2019-04-11T12:20:47.896Z,12.80
2019-04-11T12:23:15.449Z,13.10
2019-04-11T12:25:43.141Z,12.80
2019-04-11T12:28:21.346Z,13.00
2019-04-11T12:30:48.244Z,13.10
2019-04-11T12:33:15.783Z,13.40
2019-04-11T12:35:46.436Z,13.40
2019-04-11T12:38:14.740Z,13.40
2019-04-11T12:40:47.962Z,13.60
2019-04-11T12:43:15.523Z,13.20
2019-04-11T12:45:48.664Z,13.00
2019-04-11T12:48:16.239Z,13.00
2019-04-11T12:51:02.763Z,13.10
2019-04-11T12:53:30.360Z,13.60
2019-04-11T12:56:03.617Z,13.50
2019-04-11T12:58:36.888Z,13.90
2019-04-11T13:01:06.183Z,13.80
2019-04-11T13:03:39.496Z,13.80
2019-04-11T13:06:35.236Z,14.30
2019-04-11T13:08:59.957Z,14.00
2019-04-11T13:11:27.531Z,14.40
2019-04-11T13:14:12.292Z,15.10
2019-04-11T13:16:39.524Z,14.80
2019-04-11T13:19:13.709Z,15.60
2019-04-11T13:21:46.774Z,15.10
2019-04-11T13:24:14.340Z,15.40
2019-04-11T13:26:52.780Z,15.30
2019-04-11T13:29:25.931Z,15.60
2019-04-11T13:31:59.940Z,16.20
2019-04-11T13:34:27.519Z,16.20
2019-04-11T13:36:59.761Z,16.30
2019-04-11T13:39:27.372Z,15.70
2019-04-11T13:42:00.503Z,15.90
2019-04-11T13:44:28.841Z,16.20
2019-04-11T13:46:56.914Z,16.20
2019-04-11T13:49:30.199Z,16.10
2019-04-11T13:52:01.521Z,16.10
2019-04-11T13:54:38.070Z,16.70
2019-04-11T14:00:08.376Z,17.20
2019-04-11T14:02:54.774Z,17.30
2019-04-11T14:05:22.339Z,17.60
2019-04-11T14:07:49.919Z,17.40
2019-04-11T14:10:17.489Z,16.40
2019-04-11T14:12:45.059Z,16.80
2019-04-11T14:15:22.127Z,16.90
2019-04-11T14:20:46.728Z,15.50
2019-04-11T14:23:30.952Z,15.20
2019-04-11T14:28:56.444Z,14.30
2019-04-11T14:31:41.711Z,14.50
2019-04-11T14:34:09.298Z,14.30
2019-04-11T14:36:43.336Z,14.50
2019-04-11T14:39:10.925Z,14.50
2019-04-11T14:41:44.028Z,14.90
2019-04-11T14:44:11.593Z,15.10
2019-04-11T14:46:41.095Z,15.40
2019-04-11T14:49:10.429Z,15.10
2019-04-11T14:51:40.855Z,15.60
2019-04-11T14:54:11.654Z,15.20
2019-04-11T14:56:37.263Z,14.00
2019-04-11T14:59:10.518Z,14.10
2019-04-11T15:01:38.087Z,15.50
2019-04-11T15:04:13.437Z,16.70
2019-04-11T15:06:50.765Z,17.40
2019-04-11T15:09:22.057Z,18.40
2019-04-11T15:11:50.479Z,18.40
2019-04-11T15:14:23.713Z,18.90
2019-04-11T15:16:56.848Z,19.40
2019-04-11T15:19:24.564Z,18.80
2019-04-11T15:21:58.803Z,17.90
2019-04-11T15:24:26.369Z,18.30
2019-04-11T15:27:10.475Z,17.90
2019-04-11T15:29:38.048Z,17.90
2019-04-11T15:32:06.535Z,18.90
2019-04-11T15:34:34.105Z,17.00
2019-04-11T15:37:06.208Z,15.30
2019-04-11T15:39:44.262Z,14.80
2019-04-11T15:42:09.249Z,16.70
2019-04-11T15:44:41.795Z,16.60
2019-04-11T15:47:09.187Z,16.50
2019-04-11T15:52:37.043Z,17.20
2019-04-11T15:55:14.430Z,15.40
2019-04-11T15:57:43.653Z,15.30
2019-04-11T16:00:23.390Z,14.80
2019-04-11T16:02:51.769Z,14.30
2019-04-11T16:08:22.019Z,14.00
2019-04-11T16:10:49.979Z,14.00
2019-04-11T16:13:32.427Z,13.80
2019-04-11T16:16:06.765Z,14.00
2019-04-11T16:18:30.568Z,13.90
2019-04-11T16:20:58.779Z,13.90
2019-04-11T16:23:36.272Z,12.90
2019-04-11T16:26:05.548Z,12.50
2019-04-11T16:28:37.948Z,12.50
2019-04-11T16:31:10.368Z,12.60
2019-04-11T16:33:38.903Z,12.60
2019-04-11T16:36:06.477Z,12.70
2019-04-11T16:38:36.662Z,12.70
2019-04-11T16:41:10.684Z,12.40
2019-04-11T16:43:38.247Z,12.40
2019-04-11T16:46:24.620Z,12.40
2019-04-11T16:48:48.325Z,12.20
2019-04-11T16:51:16.093Z,12.00
2019-04-11T16:53:45.571Z,12.10
2019-04-11T16:56:13.336Z,11.90
2019-04-11T16:58:40.764Z,11.90
2019-04-11T17:01:08.337Z,12.00
2019-04-11T17:03:36.663Z,12.00
2019-04-11T17:06:04.945Z,12.00
2019-04-11T17:08:35.055Z,11.90
2019-04-11T17:11:02.627Z,12.00
2019-04-11T17:13:32.376Z,11.90
2019-04-11T17:15:59.963Z,11.60
2019-04-11T17:18:27.691Z,11.80
2019-04-11T17:20:55.264Z,11.80
2019-04-11T17:23:22.831Z,11.60
2019-04-11T17:25:52.867Z,11.80
2019-04-11T17:28:22.690Z,11.50
2019-04-11T17:30:49.080Z,11.60
2019-04-11T17:33:16.647Z,11.60
2019-04-11T17:35:44.228Z,11.50
2019-04-11T17:38:11.796Z,11.50
2019-04-11T17:40:40.096Z,11.60
2019-04-11T17:43:07.000Z,11.60
2019-04-11T17:45:34.577Z,11.30
2019-04-11T17:48:02.147Z,11.20
2019-04-11T17:50:29.739Z,11.00
2019-04-11T17:52:57.299Z,10.80
2019-04-11T17:55:24.907Z,10.90
2019-04-11T17:57:54.898Z,10.90
2019-04-11T18:00:24.071Z,10.80
2019-04-11T18:02:51.640Z,10.70
2019-04-11T18:05:19.293Z,10.60
2019-04-11T18:07:47.632Z,10.70
2019-04-11T18:10:14.484Z,10.70
2019-04-11T18:12:42.061Z,10.50
2019-04-11T18:15:09.651Z,10.50
2019-04-11T18:17:37.220Z,10.50
2019-04-11T18:20:06.899Z,10.50
2019-04-11T18:22:32.403Z,10.30
2019-04-11T18:24:59.972Z,10.20
2019-04-11T18:27:27.552Z,10.10
2019-04-11T18:29:55.119Z,10.00
2019-04-11T18:32:22.697Z,9.80
2019-04-11T18:34:50.268Z,9.60
2019-04-11T18:37:17.874Z,9.40
2019-04-11T18:39:46.380Z,9.20
2019-04-11T18:42:13.941Z,9.00
2019-04-11T18:44:42.275Z,8.80
2019-04-11T18:47:09.847Z,8.80
2019-04-11T18:49:37.430Z,8.70
2019-04-11T18:52:05.008Z,8.50
2019-04-11T18:54:32.712Z,8.20
2019-04-11T18:57:00.314Z,8.20
2019-04-11T18:59:27.875Z,8.10
2019-04-11T19:01:57.376Z,8.10
2019-04-11T19:04:32.344Z,8.00
2019-04-11T19:06:54.494Z,8.10
2019-04-11T19:09:22.064Z,8.00
2019-04-11T19:11:51.501Z,7.90
2019-04-11T19:14:17.290Z,7.90
2019-04-11T19:16:46.579Z,7.80
2019-04-11T19:19:13.426Z,7.70
2019-04-11T19:21:40.999Z,7.70
2019-04-11T19:24:10.758Z,7.70
2019-04-11T19:26:36.188Z,7.60
2019-04-11T19:29:06.080Z,7.60
2019-04-11T19:31:31.432Z,7.60
2019-04-11T19:33:58.996Z,7.70
2019-04-11T19:36:26.569Z,7.60
2019-04-11T19:38:54.167Z,7.50
2019-04-11T19:41:21.840Z,7.50
2019-04-11T19:43:49.896Z,7.40
2019-04-11T19:46:18.000Z,7.40
2019-04-11T19:48:44.643Z,7.30
2019-04-11T19:51:14.148Z,7.20
2019-04-11T19:53:41.727Z,7.20
2019-04-11T19:56:11.901Z,7.20
2019-04-11T19:58:39.479Z,7.20
2019-04-11T20:01:07.815Z,7.10
2019-04-11T20:03:35.390Z,7.00
2019-04-11T20:06:02.962Z,6.90
2019-04-11T20:08:30.548Z,6.90
2019-04-11T20:11:01.048Z,6.90
2019-04-11T20:13:25.736Z,6.80
2019-04-11T20:15:53.308Z,6.70
2019-04-11T20:18:22.686Z,6.70
2019-04-11T20:20:52.073Z,6.70
2019-04-11T20:23:18.970Z,6.60
2019-04-11T20:25:49.752Z,6.60
2019-04-11T20:28:15.092Z,6.60
2019-04-11T20:30:43.766Z,6.70
2019-04-11T20:33:12.099Z,6.80
2019-04-11T20:35:40.014Z,6.80
2019-04-11T20:38:07.296Z,6.90
2019-04-11T20:40:35.147Z,7.00
2019-04-11T20:43:02.727Z,6.90
2019-04-11T20:45:30.329Z,6.80
2019-04-11T20:48:00.374Z,6.70
2019-04-11T20:50:26.451Z,6.70
2019-04-11T20:52:54.030Z,6.60
2019-04-11T20:55:23.513Z,6.50
2019-04-11T20:57:51.084Z,6.50
2019-04-11T21:00:18.647Z,6.40
2019-04-11T21:02:46.216Z,6.20
2019-04-11T21:05:15.651Z,6.10
2019-04-11T21:07:45.138Z,6.10
2019-04-11T21:10:12.783Z,6.20
2019-04-11T21:12:40.351Z,6.20
2019-04-11T21:15:07.924Z,6.20
2019-04-11T21:17:36.443Z,6.10
2019-04-11T21:20:04.779Z,6.00
2019-04-11T21:22:32.339Z,6.10
2019-04-11T21:25:00.113Z,6.10
2019-04-11T21:27:28.972Z,6.10
2019-04-11T21:29:55.133Z,6.00
2019-04-11T21:32:22.699Z,5.80
2019-04-11T21:34:50.265Z,5.70
2019-04-11T21:37:17.833Z,5.60
2019-04-11T21:39:47.339Z,5.70
2019-04-11T21:42:15.370Z,5.60
2019-04-11T21:44:42.967Z,5.50
2019-04-11T21:47:10.535Z,5.50
2019-04-11T21:49:38.105Z,5.40
2019-04-11T21:52:06.116Z,5.40
2019-04-11T21:54:34.795Z,5.40
2019-04-11T21:57:02.399Z,5.30
2019-04-11T21:59:29.968Z,5.30
2019-04-11T22:01:58.299Z,5.20
2019-04-11T22:04:27.396Z,5.20
2019-04-11T22:06:53.480Z,5.20
2019-04-11T22:09:21.058Z,5.20
2019-04-11T22:11:48.627Z,5.10
2019-04-11T22:14:16.195Z,5.10
2019-04-11T22:16:45.348Z,4.90
2019-04-11T22:19:14.257Z,4.80
2019-04-11T22:21:39.925Z,4.80
2019-04-11T22:24:07.491Z,4.80
2019-04-11T22:26:35.059Z,4.70
2019-04-11T22:29:03.395Z,4.70
2019-04-11T22:31:30.959Z,4.70
2019-04-11T22:33:58.528Z,4.70
2019-04-11T22:36:30.600Z,4.70
2019-04-11T22:38:58.728Z,4.80
2019-04-11T22:41:24.232Z,4.70
2019-04-11T22:43:51.800Z,4.70
2019-04-11T22:46:20.810Z,4.70
2019-04-11T22:48:46.976Z,4.60
2019-04-11T22:51:14.544Z,4.50
2019-04-11T22:53:43.305Z,4.50
2019-04-11T22:56:11.711Z,4.50
2019-04-11T22:58:37.348Z,4.50
2019-04-11T23:01:04.917Z,4.50
2019-04-11T23:03:33.095Z,4.50
2019-04-11T23:06:00.673Z,4.40
2019-04-11T23:08:28.235Z,4.40
2019-04-11T23:10:56.652Z,4.50
2019-04-11T23:13:24.213Z,4.40
2019-04-11T23:15:51.783Z,4.50
2019-04-11T23:18:19.349Z,4.40
2019-04-11T23:20:46.915Z,4.30
2019-04-11T23:23:15.247Z,4.30
2019-04-11T23:25:42.819Z,4.30
2019-04-11T23:28:10.384Z,4.30
2019-04-11T23:30:37.959Z,4.30
2019-04-11T23:33:05.537Z,4.30
2019-04-11T23:35:33.107Z,4.30
2019-04-11T23:38:01.431Z,4.30
2019-04-11T23:40:29.024Z,4.30
2019-04-11T23:42:56.591Z,4.20
2019-04-11T23:45:24.925Z,4.00
2019-04-11T23:47:54.362Z,3.90
2019-04-11T23:50:24.888Z,3.80
2019-04-11T23:52:49.431Z,3.60
2019-04-11T23:55:17.915Z,3.60
2019-04-11T23:57:45.567Z,3.70
